sensor_id;sensor_type;location;lat;lon;timestamp;P1;durP1;ratioP1;P2;durP2;ratioP2
13291;SDS011;6714;53.056;8.690;2024-02-26T00:02:09;11.57;;;10.33;;
13291;SDS011;6714;53.056;8.690;2024-02-26T00:04:51;11.20;;;10.10;;
13291;SDS011;6714;53.056;8.690;2024-02-26T00:07:34;11.17;;;9.97;;
13291;SDS011;6714;53.056;8.690;2024-02-26T00:10:18;11.50;;;10.03;;
13291;SDS011;6714;53.056;8.690;2024-02-26T00:13:00;12.03;;;9.93;;
13291;SDS011;6714;53.056;8.690;2024-02-26T00:15:42;11.23;;;10.03;;
13291;SDS011;6714;53.056;8.690;2024-02-26T00:18:24;10.43;;;8.97;;
13291;SDS011;6714;53.056;8.690;2024-02-26T00:21:06;10.50;;;9.40;;
13291;SDS011;6714;53.056;8.690;2024-02-26T00:23:50;13.80;;;9.03;;
13291;SDS011;6714;53.056;8.690;2024-02-26T00:26:32;10.13;;;9.10;;
13291;SDS011;6714;53.056;8.690;2024-02-26T00:29:15;10.27;;;8.83;;
13291;SDS011;6714;53.056;8.690;2024-02-26T00:31:57;11.03;;;9.53;;
13291;SDS011;6714;53.056;8.690;2024-02-26T00:34:39;11.30;;;10.03;;
13291;SDS011;6714;53.056;8.690;2024-02-26T00:37:21;10.47;;;8.87;;
13291;SDS011;6714;53.056;8.690;2024-02-26T00:40:05;10.40;;;8.80;;
13291;SDS011;6714;53.056;8.690;2024-02-26T00:42:48;8.53;;;7.63;;
13291;SDS011;6714;53.056;8.690;2024-02-26T00:45:31;9.03;;;8.10;;
13291;SDS011;6714;53.056;8.690;2024-02-26T00:48:13;9.43;;;8.43;;
13291;SDS011;6714;53.056;8.690;2024-02-26T00:50:55;9.33;;;8.33;;
13291;SDS011;6714;53.056;8.690;2024-02-26T00:53:37;10.43;;;9.17;;
13291;SDS011;6714;53.056;8.690;2024-02-26T00:56:21;9.83;;;8.80;;
13291;SDS011;6714;53.056;8.690;2024-02-26T00:59:03;14.37;;;10.57;;
13291;SDS011;6714;53.056;8.690;2024-02-26T01:01:46;11.87;;;10.57;;
13291;SDS011;6714;53.056;8.690;2024-02-26T01:04:28;10.83;;;9.67;;
13291;SDS011;6714;53.056;8.690;2024-02-26T01:07:10;11.53;;;9.97;;
13291;SDS011;6714;53.056;8.690;2024-02-26T01:09:52;12.30;;;9.87;;
13291;SDS011;6714;53.056;8.690;2024-02-26T01:12:36;11.10;;;9.70;;
13291;SDS011;6714;53.056;8.690;2024-02-26T01:15:19;11.97;;;10.53;;
13291;SDS011;6714;53.056;8.690;2024-02-26T01:18:03;12.73;;;10.50;;
13291;SDS011;6714;53.056;8.690;2024-02-26T01:20:46;13.63;;;10.87;;
13291;SDS011;6714;53.056;8.690;2024-02-26T01:23:28;12.70;;;10.33;;
13291;SDS011;6714;53.056;8.690;2024-02-26T01:26:10;11.73;;;10.37;;
13291;SDS011;6714;53.056;8.690;2024-02-26T01:28:54;12.83;;;10.47;;
13291;SDS011;6714;53.056;8.690;2024-02-26T01:31:37;11.90;;;10.27;;
13291;SDS011;6714;53.056;8.690;2024-02-26T01:34:19;13.30;;;10.63;;
13291;SDS011;6714;53.056;8.690;2024-02-26T01:37:01;12.00;;;10.67;;
13291;SDS011;6714;53.056;8.690;2024-02-26T01:39:44;12.93;;;10.87;;
13291;SDS011;6714;53.056;8.690;2024-02-26T01:42:26;12.80;;;10.47;;
13291;SDS011;6714;53.056;8.690;2024-02-26T01:45:12;11.87;;;9.93;;
13291;SDS011;6714;53.056;8.690;2024-02-26T01:48:01;13.53;;;9.20;;
13291;SDS011;6714;53.056;8.690;2024-02-26T01:50:43;19.20;;;9.07;;
13291;SDS011;6714;53.056;8.690;2024-02-26T01:53:25;9.80;;;8.80;;
13291;SDS011;6714;53.056;8.690;2024-02-26T01:56:07;10.47;;;9.07;;
13291;SDS011;6714;53.056;8.690;2024-02-26T01:58:50;18.53;;;8.77;;
13291;SDS011;6714;53.056;8.690;2024-02-26T02:01:33;9.13;;;8.17;;
13291;SDS011;6714;53.056;8.690;2024-02-26T02:04:16;8.80;;;7.90;;
13291;SDS011;6714;53.056;8.690;2024-02-26T02:06:58;10.10;;;8.57;;
13291;SDS011;6714;53.056;8.690;2024-02-26T02:09:41;9.17;;;8.20;;
13291;SDS011;6714;53.056;8.690;2024-02-26T02:12:24;10.07;;;8.73;;
13291;SDS011;6714;53.056;8.690;2024-02-26T02:15:07;9.13;;;8.23;;
13291;SDS011;6714;53.056;8.690;2024-02-26T02:17:50;12.07;;;9.33;;
13291;SDS011;6714;53.056;8.690;2024-02-26T02:20:34;12.83;;;9.03;;
13291;SDS011;6714;53.056;8.690;2024-02-26T02:23:17;11.13;;;9.27;;
13291;SDS011;6714;53.056;8.690;2024-02-26T02:25:59;10.40;;;8.80;;
13291;SDS011;6714;53.056;8.690;2024-02-26T02:28:41;10.17;;;9.07;;
13291;SDS011;6714;53.056;8.690;2024-02-26T02:31:23;10.03;;;9.03;;
13291;SDS011;6714;53.056;8.690;2024-02-26T02:34:06;9.53;;;8.53;;
13291;SDS011;6714;53.056;8.690;2024-02-26T02:36:51;10.93;;;9.60;;
13291;SDS011;6714;53.056;8.690;2024-02-26T02:39:33;9.50;;;8.50;;
13291;SDS011;6714;53.056;8.690;2024-02-26T02:42:15;10.53;;;9.40;;
13291;SDS011;6714;53.056;8.690;2024-02-26T02:44:58;10.93;;;8.60;;
13291;SDS011;6714;53.056;8.690;2024-02-26T02:47:40;9.70;;;8.70;;
13291;SDS011;6714;53.056;8.690;2024-02-26T02:50:22;12.03;;;8.70;;
13291;SDS011;6714;53.056;8.690;2024-02-26T02:53:06;9.53;;;8.27;;
13291;SDS011;6714;53.056;8.690;2024-02-26T02:55:48;11.60;;;9.07;;
13291;SDS011;6714;53.056;8.690;2024-02-26T02:58:30;10.17;;;9.07;;
13291;SDS011;6714;53.056;8.690;2024-02-26T03:01:13;10.83;;;9.33;;
13291;SDS011;6714;53.056;8.690;2024-02-26T03:03:55;13.67;;;10.37;;
13291;SDS011;6714;53.056;8.690;2024-02-26T03:06:38;13.27;;;10.30;;
13291;SDS011;6714;53.056;8.690;2024-02-26T03:09:21;13.70;;;10.30;;
13291;SDS011;6714;53.056;8.690;2024-02-26T03:12:04;12.40;;;9.90;;
13291;SDS011;6714;53.056;8.690;2024-02-26T03:14:46;13.07;;;9.87;;
13291;SDS011;6714;53.056;8.690;2024-02-26T03:17:29;12.30;;;10.23;;
13291;SDS011;6714;53.056;8.690;2024-02-26T03:20:11;11.77;;;9.67;;
13291;SDS011;6714;53.056;8.690;2024-02-26T03:22:53;13.53;;;9.87;;
13291;SDS011;6714;53.056;8.690;2024-02-26T03:25:37;11.30;;;8.67;;
13291;SDS011;6714;53.056;8.690;2024-02-26T03:28:19;13.10;;;10.03;;
13291;SDS011;6714;53.056;8.690;2024-02-26T03:31:01;13.73;;;10.00;;
13291;SDS011;6714;53.056;8.690;2024-02-26T03:33:44;14.77;;;10.70;;
13291;SDS011;6714;53.056;8.690;2024-02-26T03:36:26;14.93;;;10.80;;
13291;SDS011;6714;53.056;8.690;2024-02-26T03:39:08;14.60;;;10.63;;
13291;SDS011;6714;53.056;8.690;2024-02-26T03:41:52;14.93;;;11.53;;
13291;SDS011;6714;53.056;8.690;2024-02-26T03:44:34;13.27;;;10.27;;
13291;SDS011;6714;53.056;8.690;2024-02-26T03:47:17;11.43;;;9.40;;
13291;SDS011;6714;53.056;8.690;2024-02-26T03:49:59;10.60;;;8.73;;
13291;SDS011;6714;53.056;8.690;2024-02-26T03:52:41;12.97;;;9.83;;
13291;SDS011;6714;53.056;8.690;2024-02-26T03:55:23;11.70;;;10.20;;
13291;SDS011;6714;53.056;8.690;2024-02-26T03:58:07;14.00;;;10.63;;
13291;SDS011;6714;53.056;8.690;2024-02-26T04:00:49;12.53;;;9.27;;
13291;SDS011;6714;53.056;8.690;2024-02-26T04:03:31;11.90;;;9.67;;
13291;SDS011;6714;53.056;8.690;2024-02-26T04:06:15;9.20;;;8.10;;
13291;SDS011;6714;53.056;8.690;2024-02-26T04:09:00;13.67;;;10.33;;
13291;SDS011;6714;53.056;8.690;2024-02-26T04:11:43;12.37;;;10.00;;
13291;SDS011;6714;53.056;8.690;2024-02-26T04:14:27;14.97;;;10.53;;
13291;SDS011;6714;53.056;8.690;2024-02-26T04:17:09;13.83;;;10.53;;
13291;SDS011;6714;53.056;8.690;2024-02-26T04:19:52;14.83;;;11.30;;
13291;SDS011;6714;53.056;8.690;2024-02-26T04:22:34;13.87;;;11.03;;
13291;SDS011;6714;53.056;8.690;2024-02-26T04:25:17;17.27;;;12.37;;
13291;SDS011;6714;53.056;8.690;2024-02-26T04:27:59;13.03;;;10.03;;
13291;SDS011;6714;53.056;8.690;2024-02-26T04:30:42;13.13;;;10.10;;
13291;SDS011;6714;53.056;8.690;2024-02-26T04:33:25;13.23;;;9.70;;
13291;SDS011;6714;53.056;8.690;2024-02-26T04:36:11;16.00;;;11.20;;
13291;SDS011;6714;53.056;8.690;2024-02-26T04:38:54;13.13;;;10.23;;
13291;SDS011;6714;53.056;8.690;2024-02-26T04:41:36;13.30;;;10.30;;
13291;SDS011;6714;53.056;8.690;2024-02-26T04:44:18;12.77;;;10.20;;
13291;SDS011;6714;53.056;8.690;2024-02-26T04:47:02;14.60;;;11.03;;
13291;SDS011;6714;53.056;8.690;2024-02-26T04:49:44;12.87;;;10.27;;
13291;SDS011;6714;53.056;8.690;2024-02-26T04:52:27;13.10;;;10.70;;
13291;SDS011;6714;53.056;8.690;2024-02-26T04:55:09;11.37;;;9.60;;
13291;SDS011;6714;53.056;8.690;2024-02-26T04:57:51;15.27;;;10.77;;
13291;SDS011;6714;53.056;8.690;2024-02-26T05:00:33;12.13;;;10.00;;
13291;SDS011;6714;53.056;8.690;2024-02-26T05:03:17;14.27;;;11.40;;
13291;SDS011;6714;53.056;8.690;2024-02-26T05:06:00;14.10;;;11.23;;
13291;SDS011;6714;53.056;8.690;2024-02-26T05:08:42;13.67;;;10.87;;
13291;SDS011;6714;53.056;8.690;2024-02-26T05:11:26;14.57;;;10.63;;
13291;SDS011;6714;53.056;8.690;2024-02-26T05:14:08;14.13;;;10.83;;
13291;SDS011;6714;53.056;8.690;2024-02-26T05:16:50;14.17;;;11.07;;
13291;SDS011;6714;53.056;8.690;2024-02-26T05:19:34;15.37;;;11.73;;
13291;SDS011;6714;53.056;8.690;2024-02-26T05:22:16;15.90;;;11.23;;
13291;SDS011;6714;53.056;8.690;2024-02-26T05:24:58;14.90;;;10.53;;
13291;SDS011;6714;53.056;8.690;2024-02-26T05:27:41;16.37;;;12.10;;
13291;SDS011;6714;53.056;8.690;2024-02-26T05:30:23;7.60;;;6.63;;
13291;SDS011;6714;53.056;8.690;2024-02-26T05:33:07;16.90;;;12.63;;
13291;SDS011;6714;53.056;8.690;2024-02-26T05:35:50;13.27;;;10.57;;
13291;SDS011;6714;53.056;8.690;2024-02-26T05:38:33;14.43;;;11.43;;
13291;SDS011;6714;53.056;8.690;2024-02-26T05:41:15;15.90;;;11.50;;
13291;SDS011;6714;53.056;8.690;2024-02-26T05:44:03;16.67;;;13.20;;
13291;SDS011;6714;53.056;8.690;2024-02-26T05:46:45;15.80;;;11.87;;
13291;SDS011;6714;53.056;8.690;2024-02-26T05:49:28;9.37;;;7.90;;
13291;SDS011;6714;53.056;8.690;2024-02-26T05:52:11;16.90;;;11.57;;
13291;SDS011;6714;53.056;8.690;2024-02-26T05:54:53;23.30;;;16.43;;
13291;SDS011;6714;53.056;8.690;2024-02-26T05:57:36;14.40;;;10.53;;
13291;SDS011;6714;53.056;8.690;2024-02-26T06:00:18;24.77;;;15.57;;
13291;SDS011;6714;53.056;8.690;2024-02-26T06:03:01;15.27;;;10.70;;
13291;SDS011;6714;53.056;8.690;2024-02-26T06:05:43;23.10;;;14.30;;
13291;SDS011;6714;53.056;8.690;2024-02-26T06:08:27;17.77;;;12.57;;
13291;SDS011;6714;53.056;8.690;2024-02-26T06:11:09;21.87;;;14.40;;
13291;SDS011;6714;53.056;8.690;2024-02-26T06:13:51;36.07;;;21.20;;
13291;SDS011;6714;53.056;8.690;2024-02-26T06:16:33;25.00;;;14.73;;
13291;SDS011;6714;53.056;8.690;2024-02-26T06:19:16;13.03;;;9.10;;
13291;SDS011;6714;53.056;8.690;2024-02-26T06:21:58;34.87;;;19.97;;
13291;SDS011;6714;53.056;8.690;2024-02-26T06:24:42;50.47;;;25.07;;
13291;SDS011;6714;53.056;8.690;2024-02-26T06:27:24;32.80;;;18.10;;
13291;SDS011;6714;53.056;8.690;2024-02-26T06:30:07;25.43;;;14.70;;
13291;SDS011;6714;53.056;8.690;2024-02-26T06:32:51;23.93;;;14.03;;
13291;SDS011;6714;53.056;8.690;2024-02-26T06:35:33;47.07;;;23.83;;
13291;SDS011;6714;53.056;8.690;2024-02-26T06:38:15;59.33;;;26.33;;
13291;SDS011;6714;53.056;8.690;2024-02-26T06:40:59;28.90;;;16.60;;
13291;SDS011;6714;53.056;8.690;2024-02-26T06:43:43;33.37;;;18.30;;
13291;SDS011;6714;53.056;8.690;2024-02-26T06:46:25;44.37;;;22.47;;
13291;SDS011;6714;53.056;8.690;2024-02-26T06:49:10;47.13;;;22.93;;
13291;SDS011;6714;53.056;8.690;2024-02-26T06:51:53;55.63;;;25.97;;
13291;SDS011;6714;53.056;8.690;2024-02-26T06:54:35;38.13;;;19.90;;
13291;SDS011;6714;53.056;8.690;2024-02-26T06:57:18;57.03;;;26.47;;
13291;SDS011;6714;53.056;8.690;2024-02-26T07:00:01;58.90;;;26.10;;
13291;SDS011;6714;53.056;8.690;2024-02-26T07:02:44;27.10;;;15.43;;
13291;SDS011;6714;53.056;8.690;2024-02-26T07:05:26;35.27;;;17.87;;
13291;SDS011;6714;53.056;8.690;2024-02-26T07:08:08;39.73;;;21.13;;
13291;SDS011;6714;53.056;8.690;2024-02-26T07:10:51;68.57;;;28.67;;
13291;SDS011;6714;53.056;8.690;2024-02-26T07:13:34;44.27;;;20.90;;
13291;SDS011;6714;53.056;8.690;2024-02-26T07:16:17;67.67;;;28.33;;
13291;SDS011;6714;53.056;8.690;2024-02-26T07:18:59;77.20;;;28.53;;
13291;SDS011;6714;53.056;8.690;2024-02-26T07:21:42;35.57;;;17.77;;
13291;SDS011;6714;53.056;8.690;2024-02-26T07:24:24;49.03;;;22.60;;
13291;SDS011;6714;53.056;8.690;2024-02-26T07:27:07;26.83;;;15.60;;
13291;SDS011;6714;53.056;8.690;2024-02-26T07:29:50;47.43;;;23.43;;
13291;SDS011;6714;53.056;8.690;2024-02-26T07:32:32;49.87;;;25.17;;
13291;SDS011;6714;53.056;8.690;2024-02-26T07:35:15;43.10;;;22.50;;
13291;SDS011;6714;53.056;8.690;2024-02-26T07:37:57;41.47;;;20.97;;
13291;SDS011;6714;53.056;8.690;2024-02-26T07:40:39;50.93;;;24.80;;
13291;SDS011;6714;53.056;8.690;2024-02-26T07:43:22;41.80;;;21.93;;
13291;SDS011;6714;53.056;8.690;2024-02-26T07:46:05;81.13;;;30.80;;
13291;SDS011;6714;53.056;8.690;2024-02-26T07:48:48;61.50;;;28.57;;
13291;SDS011;6714;53.056;8.690;2024-02-26T07:51:30;66.77;;;29.37;;
13291;SDS011;6714;53.056;8.690;2024-02-26T07:54:12;37.30;;;20.23;;
13291;SDS011;6714;53.056;8.690;2024-02-26T07:56:56;38.70;;;22.17;;
13291;SDS011;6714;53.056;8.690;2024-02-26T07:59:40;38.33;;;21.50;;
13291;SDS011;6714;53.056;8.690;2024-02-26T08:02:23;56.80;;;29.43;;
13291;SDS011;6714;53.056;8.690;2024-02-26T08:05:06;48.27;;;27.00;;
13291;SDS011;6714;53.056;8.690;2024-02-26T08:07:48;57.10;;;29.17;;
13291;SDS011;6714;53.056;8.690;2024-02-26T08:10:31;34.67;;;20.73;;
13291;SDS011;6714;53.056;8.690;2024-02-26T08:13:13;38.87;;;21.83;;
13291;SDS011;6714;53.056;8.690;2024-02-26T08:15:55;51.23;;;27.77;;
13291;SDS011;6714;53.056;8.690;2024-02-26T08:18:40;44.97;;;25.07;;
13291;SDS011;6714;53.056;8.690;2024-02-26T08:21:22;44.70;;;26.10;;
13291;SDS011;6714;53.056;8.690;2024-02-26T08:24:05;41.00;;;23.93;;
13291;SDS011;6714;53.056;8.690;2024-02-26T08:26:47;32.43;;;19.63;;
13291;SDS011;6714;53.056;8.690;2024-02-26T08:29:29;31.93;;;18.73;;
13291;SDS011;6714;53.056;8.690;2024-02-26T08:32:11;36.17;;;22.00;;
13291;SDS011;6714;53.056;8.690;2024-02-26T08:34:55;40.53;;;23.83;;
13291;SDS011;6714;53.056;8.690;2024-02-26T08:37:37;25.73;;;15.67;;
13291;SDS011;6714;53.056;8.690;2024-02-26T08:40:19;21.67;;;14.50;;
13291;SDS011;6714;53.056;8.690;2024-02-26T08:43:02;23.43;;;15.77;;
13291;SDS011;6714;53.056;8.690;2024-02-26T08:45:44;19.63;;;13.57;;
13291;SDS011;6714;53.056;8.690;2024-02-26T08:48:26;31.63;;;20.17;;
13291;SDS011;6714;53.056;8.690;2024-02-26T08:51:10;20.97;;;14.93;;
13291;SDS011;6714;53.056;8.690;2024-02-26T08:53:53;28.07;;;18.93;;
13291;SDS011;6714;53.056;8.690;2024-02-26T08:56:35;33.83;;;21.37;;
13291;SDS011;6714;53.056;8.690;2024-02-26T08:59:17;32.20;;;19.63;;
13291;SDS011;6714;53.056;8.690;2024-02-26T09:02:02;29.10;;;19.60;;
13291;SDS011;6714;53.056;8.690;2024-02-26T09:04:45;27.73;;;18.13;;
13291;SDS011;6714;53.056;8.690;2024-02-26T09:07:29;24.50;;;16.47;;
13291;SDS011;6714;53.056;8.690;2024-02-26T09:10:11;28.33;;;19.60;;
13291;SDS011;6714;53.056;8.690;2024-02-26T09:12:53;21.67;;;15.00;;
13291;SDS011;6714;53.056;8.690;2024-02-26T09:15:36;22.03;;;15.20;;
13291;SDS011;6714;53.056;8.690;2024-02-26T09:18:18;18.73;;;13.27;;
13291;SDS011;6714;53.056;8.690;2024-02-26T09:21:03;24.13;;;17.43;;
13291;SDS011;6714;53.056;8.690;2024-02-26T09:23:47;20.17;;;13.50;;
13291;SDS011;6714;53.056;8.690;2024-02-26T09:26:29;27.40;;;18.40;;
13291;SDS011;6714;53.056;8.690;2024-02-26T09:29:12;27.77;;;17.60;;
13291;SDS011;6714;53.056;8.690;2024-02-26T09:31:54;23.97;;;17.23;;
13291;SDS011;6714;53.056;8.690;2024-02-26T09:34:36;21.13;;;15.23;;
13291;SDS011;6714;53.056;8.690;2024-02-26T09:37:18;22.77;;;16.03;;
13291;SDS011;6714;53.056;8.690;2024-02-26T09:40:02;20.13;;;14.13;;
13291;SDS011;6714;53.056;8.690;2024-02-26T09:42:46;25.10;;;18.00;;
13291;SDS011;6714;53.056;8.690;2024-02-26T09:45:28;21.97;;;15.70;;
13291;SDS011;6714;53.056;8.690;2024-02-26T09:48:11;26.63;;;17.70;;
13291;SDS011;6714;53.056;8.690;2024-02-26T09:50:54;16.83;;;12.23;;
13291;SDS011;6714;53.056;8.690;2024-02-26T09:53:36;20.53;;;14.97;;
13291;SDS011;6714;53.056;8.690;2024-02-26T09:56:24;22.97;;;16.50;;
13291;SDS011;6714;53.056;8.690;2024-02-26T09:59:07;23.53;;;17.10;;
13291;SDS011;6714;53.056;8.690;2024-02-26T10:01:51;19.27;;;13.97;;
13291;SDS011;6714;53.056;8.690;2024-02-26T10:04:34;13.27;;;10.93;;
13291;SDS011;6714;53.056;8.690;2024-02-26T10:07:16;15.50;;;12.33;;
13291;SDS011;6714;53.056;8.690;2024-02-26T10:09:59;15.70;;;12.17;;
13291;SDS011;6714;53.056;8.690;2024-02-26T10:12:42;21.70;;;15.27;;
13291;SDS011;6714;53.056;8.690;2024-02-26T10:15:25;19.73;;;14.67;;
13291;SDS011;6714;53.056;8.690;2024-02-26T10:18:07;22.73;;;16.77;;
13291;SDS011;6714;53.056;8.690;2024-02-26T10:20:58;19.83;;;14.83;;
13291;SDS011;6714;53.056;8.690;2024-02-26T10:23:43;17.93;;;13.23;;
13291;SDS011;6714;53.056;8.690;2024-02-26T10:26:25;22.47;;;15.53;;
13291;SDS011;6714;53.056;8.690;2024-02-26T10:29:09;12.07;;;10.30;;
13291;SDS011;6714;53.056;8.690;2024-02-26T10:31:52;21.30;;;15.00;;
13291;SDS011;6714;53.056;8.690;2024-02-26T10:34:34;16.17;;;12.77;;
13291;SDS011;6714;53.056;8.690;2024-02-26T10:37:17;16.07;;;12.07;;
13291;SDS011;6714;53.056;8.690;2024-02-26T10:40:00;19.07;;;14.03;;
13291;SDS011;6714;53.056;8.690;2024-02-26T10:42:42;14.57;;;11.57;;
13291;SDS011;6714;53.056;8.690;2024-02-26T10:45:28;17.20;;;12.87;;
13291;SDS011;6714;53.056;8.690;2024-02-26T10:48:12;15.03;;;11.87;;
13291;SDS011;6714;53.056;8.690;2024-02-26T10:50:55;16.47;;;12.23;;
13291;SDS011;6714;53.056;8.690;2024-02-26T10:53:38;15.40;;;12.13;;
13291;SDS011;6714;53.056;8.690;2024-02-26T10:56:21;13.33;;;11.37;;
13291;SDS011;6714;53.056;8.690;2024-02-26T10:59:06;17.40;;;13.87;;
13291;SDS011;6714;53.056;8.690;2024-02-26T11:01:50;15.63;;;11.77;;
13291;SDS011;6714;53.056;8.690;2024-02-26T11:04:33;16.07;;;12.37;;
13291;SDS011;6714;53.056;8.690;2024-02-26T11:07:15;17.03;;;11.80;;
13291;SDS011;6714;53.056;8.690;2024-02-26T11:09:59;17.50;;;14.33;;
13291;SDS011;6714;53.056;8.690;2024-02-26T11:12:41;17.17;;;13.80;;
13291;SDS011;6714;53.056;8.690;2024-02-26T11:15:24;16.93;;;12.87;;
13291;SDS011;6714;53.056;8.690;2024-02-26T11:18:08;19.67;;;14.47;;
13291;SDS011;6714;53.056;8.690;2024-02-26T11:20:50;12.50;;;10.40;;
13291;SDS011;6714;53.056;8.690;2024-02-26T11:23:35;15.57;;;12.57;;
13291;SDS011;6714;53.056;8.690;2024-02-26T11:26:20;14.53;;;11.30;;
13291;SDS011;6714;53.056;8.690;2024-02-26T11:29:05;16.20;;;11.80;;
13291;SDS011;6714;53.056;8.690;2024-02-26T11:31:50;14.67;;;11.10;;
13291;SDS011;6714;53.056;8.690;2024-02-26T11:34:34;16.47;;;12.93;;
13291;SDS011;6714;53.056;8.690;2024-02-26T11:37:17;14.03;;;11.83;;
13291;SDS011;6714;53.056;8.690;2024-02-26T11:39:59;14.40;;;11.77;;
13291;SDS011;6714;53.056;8.690;2024-02-26T11:42:43;12.53;;;10.47;;
13291;SDS011;6714;53.056;8.690;2024-02-26T11:45:47;14.87;;;12.20;;
13291;SDS011;6714;53.056;8.690;2024-02-26T11:48:29;16.07;;;12.73;;
13291;SDS011;6714;53.056;8.690;2024-02-26T11:51:16;12.70;;;10.13;;
13291;SDS011;6714;53.056;8.690;2024-02-26T11:53:58;11.60;;;9.93;;
13291;SDS011;6714;53.056;8.690;2024-02-26T11:56:40;14.87;;;11.90;;
13291;SDS011;6714;53.056;8.690;2024-02-26T11:59:37;12.00;;;10.30;;
13291;SDS011;6714;53.056;8.690;2024-02-26T12:02:38;12.90;;;11.00;;
13291;SDS011;6714;53.056;8.690;2024-02-26T12:05:22;10.30;;;9.00;;
13291;SDS011;6714;53.056;8.690;2024-02-26T12:08:08;10.80;;;9.30;;
13291;SDS011;6714;53.056;8.690;2024-02-26T12:10:50;8.80;;;7.40;;
13291;SDS011;6714;53.056;8.690;2024-02-26T12:13:36;14.80;;;11.43;;
13291;SDS011;6714;53.056;8.690;2024-02-26T12:19:15;10.50;;;9.03;;
13291;SDS011;6714;53.056;8.690;2024-02-26T12:21:58;11.17;;;9.43;;
13291;SDS011;6714;53.056;8.690;2024-02-26T12:24:42;13.97;;;11.70;;
13291;SDS011;6714;53.056;8.690;2024-02-26T12:27:24;13.77;;;11.47;;
13291;SDS011;6714;53.056;8.690;2024-02-26T12:30:08;9.43;;;8.43;;
13291;SDS011;6714;53.056;8.690;2024-02-26T12:32:51;11.67;;;9.20;;
13291;SDS011;6714;53.056;8.690;2024-02-26T12:35:37;13.20;;;11.53;;
13291;SDS011;6714;53.056;8.690;2024-02-26T12:38:19;9.13;;;7.50;;
13291;SDS011;6714;53.056;8.690;2024-02-26T12:41:03;10.40;;;8.90;;
13291;SDS011;6714;53.056;8.690;2024-02-26T12:43:45;10.27;;;9.20;;
13291;SDS011;6714;53.056;8.690;2024-02-26T12:46:29;12.00;;;10.43;;
13291;SDS011;6714;53.056;8.690;2024-02-26T12:49:14;11.47;;;9.83;;
13291;SDS011;6714;53.056;8.690;2024-02-26T12:52:05;8.33;;;7.30;;
13291;SDS011;6714;53.056;8.690;2024-02-26T12:54:50;10.83;;;9.70;;
13291;SDS011;6714;53.056;8.690;2024-02-26T12:57:34;10.80;;;9.27;;
13291;SDS011;6714;53.056;8.690;2024-02-26T13:00:18;10.10;;;8.93;;
13291;SDS011;6714;53.056;8.690;2024-02-26T13:03:02;12.67;;;10.70;;
13291;SDS011;6714;53.056;8.690;2024-02-26T13:05:44;8.67;;;7.80;;
13291;SDS011;6714;53.056;8.690;2024-02-26T13:08:27;8.13;;;6.87;;
13291;SDS011;6714;53.056;8.690;2024-02-26T13:11:09;9.07;;;8.17;;
13291;SDS011;6714;53.056;8.690;2024-02-26T13:13:53;9.40;;;8.40;;
13291;SDS011;6714;53.056;8.690;2024-02-26T13:16:35;8.30;;;7.17;;
13291;SDS011;6714;53.056;8.690;2024-02-26T13:19:17;7.87;;;7.07;;
13291;SDS011;6714;53.056;8.690;2024-02-26T13:22:03;8.83;;;7.93;;
13291;SDS011;6714;53.056;8.690;2024-02-26T13:24:53;7.40;;;6.63;;
13291;SDS011;6714;53.056;8.690;2024-02-26T13:27:36;7.37;;;6.70;;
13291;SDS011;6714;53.056;8.690;2024-02-26T13:30:20;9.20;;;7.20;;
13291;SDS011;6714;53.056;8.690;2024-02-26T13:33:09;9.57;;;8.57;;
13291;SDS011;6714;53.056;8.690;2024-02-26T13:35:51;9.00;;;8.00;;
13291;SDS011;6714;53.056;8.690;2024-02-26T13:38:34;7.10;;;6.40;;
13291;SDS011;6714;53.056;8.690;2024-02-26T13:41:16;8.17;;;7.37;;
13291;SDS011;6714;53.056;8.690;2024-02-26T13:43:58;7.60;;;6.83;;
13291;SDS011;6714;53.056;8.690;2024-02-26T13:46:42;7.80;;;7.07;;
13291;SDS011;6714;53.056;8.690;2024-02-26T13:49:24;6.87;;;6.27;;
13291;SDS011;6714;53.056;8.690;2024-02-26T13:52:06;8.23;;;6.83;;
13291;SDS011;6714;53.056;8.690;2024-02-26T13:54:49;8.53;;;7.53;;
13291;SDS011;6714;53.056;8.690;2024-02-26T13:57:31;9.50;;;8.50;;
13291;SDS011;6714;53.056;8.690;2024-02-26T14:00:13;8.63;;;7.73;;
13291;SDS011;6714;53.056;8.690;2024-02-26T14:02:57;9.77;;;8.37;;
13291;SDS011;6714;53.056;8.690;2024-02-26T14:05:40;5.33;;;4.83;;
13291;SDS011;6714;53.056;8.690;2024-02-26T14:08:22;7.60;;;6.67;;
13291;SDS011;6714;53.056;8.690;2024-02-26T14:11:04;6.30;;;5.70;;
13291;SDS011;6714;53.056;8.690;2024-02-26T14:13:46;6.73;;;6.13;;
13291;SDS011;6714;53.056;8.690;2024-02-26T14:16:29;7.37;;;6.63;;
13291;SDS011;6714;53.056;8.690;2024-02-26T14:19:12;7.27;;;6.57;;
13291;SDS011;6714;53.056;8.690;2024-02-26T14:21:55;5.73;;;5.23;;
13291;SDS011;6714;53.056;8.690;2024-02-26T14:24:37;6.70;;;6.00;;
13291;SDS011;6714;53.056;8.690;2024-02-26T14:27:19;7.97;;;7.17;;
13291;SDS011;6714;53.056;8.690;2024-02-26T14:30:02;7.00;;;6.37;;
13291;SDS011;6714;53.056;8.690;2024-02-26T14:32:44;7.53;;;6.77;;
13291;SDS011;6714;53.056;8.690;2024-02-26T14:35:28;6.17;;;5.37;;
13291;SDS011;6714;53.056;8.690;2024-02-26T14:38:10;8.43;;;7.53;;
13291;SDS011;6714;53.056;8.690;2024-02-26T14:40:53;6.13;;;5.57;;
13291;SDS011;6714;53.056;8.690;2024-02-26T14:43:35;7.00;;;5.90;;
13291;SDS011;6714;53.056;8.690;2024-02-26T14:46:17;7.67;;;6.87;;
13291;SDS011;6714;53.056;8.690;2024-02-26T14:49:00;7.73;;;6.93;;
13291;SDS011;6714;53.056;8.690;2024-02-26T14:51:43;9.73;;;8.50;;
13291;SDS011;6714;53.056;8.690;2024-02-26T14:54:26;7.97;;;7.17;;
13291;SDS011;6714;53.056;8.690;2024-02-26T14:57:08;7.73;;;7.03;;
13291;SDS011;6714;53.056;8.690;2024-02-26T14:59:50;7.00;;;6.33;;
13291;SDS011;6714;53.056;8.690;2024-02-26T15:02:32;7.20;;;6.47;;
13291;SDS011;6714;53.056;8.690;2024-02-26T15:05:15;7.43;;;6.73;;
13291;SDS011;6714;53.056;8.690;2024-02-26T15:08:03;8.23;;;7.43;;
13291;SDS011;6714;53.056;8.690;2024-02-26T15:10:48;7.47;;;6.67;;
13291;SDS011;6714;53.056;8.690;2024-02-26T15:13:31;6.07;;;5.57;;
13291;SDS011;6714;53.056;8.690;2024-02-26T15:16:16;8.53;;;7.63;;
13291;SDS011;6714;53.056;8.690;2024-02-26T15:19:00;6.73;;;5.47;;
13291;SDS011;6714;53.056;8.690;2024-02-26T15:21:43;5.90;;;5.33;;
13291;SDS011;6714;53.056;8.690;2024-02-26T15:24:27;7.73;;;6.93;;
13291;SDS011;6714;53.056;8.690;2024-02-26T15:27:09;8.10;;;7.30;;
13291;SDS011;6714;53.056;8.690;2024-02-26T15:29:52;6.00;;;5.47;;
13291;SDS011;6714;53.056;8.690;2024-02-26T15:32:38;9.63;;;8.63;;
13291;SDS011;6714;53.056;8.690;2024-02-26T15:35:21;8.90;;;8.00;;
13291;SDS011;6714;53.056;8.690;2024-02-26T15:38:03;9.23;;;8.33;;
13291;SDS011;6714;53.056;8.690;2024-02-26T15:40:47;7.60;;;6.80;;
13291;SDS011;6714;53.056;8.690;2024-02-26T15:43:29;8.37;;;7.47;;
13291;SDS011;6714;53.056;8.690;2024-02-26T15:46:12;6.77;;;6.13;;
13291;SDS011;6714;53.056;8.690;2024-02-26T15:48:54;9.53;;;8.63;;
13291;SDS011;6714;53.056;8.690;2024-02-26T15:51:36;9.63;;;8.40;;
13291;SDS011;6714;53.056;8.690;2024-02-26T15:54:20;6.17;;;5.63;;
13291;SDS011;6714;53.056;8.690;2024-02-26T15:57:04;8.93;;;8.03;;
13291;SDS011;6714;53.056;8.690;2024-02-26T15:59:47;6.50;;;5.90;;
13291;SDS011;6714;53.056;8.690;2024-02-26T16:02:30;6.73;;;6.03;;
13291;SDS011;6714;53.056;8.690;2024-02-26T16:05:12;8.30;;;7.43;;
13291;SDS011;6714;53.056;8.690;2024-02-26T16:07:56;6.63;;;6.00;;
13291;SDS011;6714;53.056;8.690;2024-02-26T16:10:39;6.87;;;6.13;;
13291;SDS011;6714;53.056;8.690;2024-02-26T16:13:23;8.43;;;7.63;;
13291;SDS011;6714;53.056;8.690;2024-02-26T16:16:07;6.80;;;6.20;;
13291;SDS011;6714;53.056;8.690;2024-02-26T16:18:50;7.63;;;6.93;;
13291;SDS011;6714;53.056;8.690;2024-02-26T16:21:34;9.43;;;8.53;;